Time;durP1;ratioP1;P1;durP2;ratioP2;P2;SDS_P1;SDS_P2;PMS_P1;PMS_P2;Temp;Humidity;BMP_temperature;BMP_pressure;BME280_temperature;BME280_humidity;BME280_pressure;Samples;Min_cycle;Max_cycle;Signal;HPM_P1;HPM_P2
2024/01/21 00:01:54;;;;;;;9.17;6.20;;;2.40;95.90;;;;;;5074408;28;20240;-71
2024/01/21 00:04:20;;;;;;;9.23;6.13;;;2.40;96.00;;;;;;5074263;28;20627;-70
2024/01/21 00:06:46;;;;;;;11.20;6.40;;;2.40;95.90;;;;;;5074041;28;20233;-71
2024/01/21 00:09:11;;;;;;;13.57;6.57;;;2.40;96.00;;;;;;5074300;28;20172;-71
2024/01/21 00:11:37;;;;;;;12.00;6.50;;;2.40;96.00;;;;;;5073877;28;20632;-71
2024/01/21 00:14:02;;;;;;;10.90;6.43;;;2.40;96.20;;;;;;5074121;28;20704;-71
2024/01/21 00:16:28;;;;;;;9.67;6.77;;;2.30;96.50;;;;;;5073964;28;20527;-71
2024/01/21 00:18:53;;;;;;;10.30;6.83;;;2.40;96.90;;;;;;5073521;28;20196;-70
2024/01/21 00:21:19;;;;;;;10.47;6.40;;;2.40;96.90;;;;;;5073994;28;20259;-72
2024/01/21 00:23:46;;;;;;;11.73;6.50;;;2.40;97.00;;;;;;5073924;28;20194;-70
2024/01/21 00:26:12;;;;;;;7.80;6.07;;;2.30;97.00;;;;;;5073945;28;20179;-70
2024/01/21 00:28:37;;;;;;;11.00;5.87;;;2.30;97.20;;;;;;5073891;28;20263;-71
2024/01/21 00:31:03;;;;;;;10.23;6.40;;;2.30;96.90;;;;;;5073659;28;20231;-71
2024/01/21 00:33:29;;;;;;;11.30;6.97;;;2.40;96.90;;;;;;5073422;28;20219;-70
2024/01/21 00:35:55;;;;;;;9.43;6.93;;;2.40;97.00;;;;;;5073634;28;20204;-71
2024/01/21 00:38:20;;;;;;;14.03;6.53;;;2.50;97.10;;;;;;5073679;28;20207;-70
2024/01/21 00:40:46;;;;;;;9.27;6.70;;;2.50;96.70;;;;;;5073565;28;20191;-70
2024/01/21 00:43:11;;;;;;;11.07;6.43;;;2.50;96.60;;;;;;5073484;28;20233;-70
2024/01/21 00:45:37;;;;;;;10.30;6.73;;;2.50;96.80;;;;;;5073558;28;20525;-70
2024/01/21 00:48:03;;;;;;;10.70;6.87;;;2.50;96.60;;;;;;5073194;28;20172;-70
2024/01/21 00:50:28;;;;;;;9.33;6.27;;;2.50;96.70;;;;;;5073510;28;20169;-70
2024/01/21 00:52:54;;;;;;;10.77;7.47;;;2.60;96.20;;;;;;5073488;28;20183;-71
2024/01/21 00:55:19;;;;;;;9.03;6.40;;;2.60;96.10;;;;;;5073296;28;20161;-71
2024/01/21 00:57:45;;;;;;;8.67;6.33;;;2.60;96.30;;;;;;5073247;28;20196;-70
2024/01/21 01:00:11;;;;;;;10.23;6.70;;;2.60;95.40;;;;;;5073295;28;20222;-70
2024/01/21 01:02:37;;;;;;;8.73;6.23;;;2.60;95.70;;;;;;5072949;28;20177;-71
2024/01/21 01:05:02;;;;;;;10.57;7.00;;;2.70;95.50;;;;;;5073248;28;20172;-70
2024/01/21 01:07:28;;;;;;;11.90;6.63;;;2.70;95.80;;;;;;5073227;28;20584;-71
2024/01/21 01:09:54;;;;;;;14.53;7.43;;;2.70;95.50;;;;;;5072836;28;20534;-71
2024/01/21 01:12:19;;;;;;;11.97;6.73;;;2.80;95.70;;;;;;5073141;28;20168;-71
2024/01/21 01:14:45;;;;;;;13.13;7.23;;;2.80;95.40;;;;;;5073082;28;20176;-70
2024/01/21 01:17:12;;;;;;;10.87;6.63;;;2.80;96.00;;;;;;5072775;28;20176;-69
2024/01/21 01:19:38;;;;;;;15.77;6.87;;;2.80;95.90;;;;;;5073067;28;20262;-70
2024/01/21 01:22:04;;;;;;;10.87;6.67;;;2.80;95.70;;;;;;5073074;28;20168;-71
2024/01/21 01:24:29;;;;;;;8.93;6.40;;;2.80;95.50;;;;;;5072910;28;20180;-69
2024/01/21 01:26:55;;;;;;;11.00;7.13;;;2.80;95.60;;;;;;5073195;28;20173;-71
2024/01/21 01:29:20;;;;;;;10.50;7.17;;;2.70;95.70;;;;;;5072967;28;20172;-70
2024/01/21 01:31:46;;;;;;;9.07;6.67;;;2.70;95.70;;;;;;5071516;28;20241;-71
2024/01/21 01:34:12;;;;;;;8.40;6.43;;;2.70;95.10;;;;;;5071773;28;20261;-70
2024/01/21 01:36:38;;;;;;;9.70;6.50;;;2.70;95.50;;;;;;5072880;28;20302;-72
2024/01/21 01:39:04;;;;;;;10.83;6.93;;;2.70;95.20;;;;;;5072752;28;20691;-71
2024/01/21 01:41:30;;;;;;;9.80;6.40;;;2.70;95.30;;;;;;5072878;28;20176;-71
2024/01/21 01:43:55;;;;;;;11.77;7.13;;;2.80;95.90;;;;;;5073052;28;20272;-70
2024/01/21 01:46:21;;;;;;;10.87;6.33;;;2.80;95.40;;;;;;5072536;28;20555;-71
2024/01/21 01:48:47;;;;;;;8.53;5.80;;;2.70;95.60;;;;;;5072854;28;20187;-70
2024/01/21 01:51:13;;;;;;;12.07;6.23;;;2.80;95.00;;;;;;5072791;28;20179;-70
2024/01/21 01:53:39;;;;;;;9.57;6.17;;;2.80;95.40;;;;;;5072679;28;20255;-70
2024/01/21 01:56:07;;;;;;;11.27;6.83;;;2.80;95.60;;;;;;5072905;28;20223;-70
2024/01/21 01:58:34;;;;;;;11.20;6.53;;;2.90;95.10;;;;;;5072583;28;20217;-70
2024/01/21 02:01:01;;;;;;;9.40;6.20;;;2.90;95.30;;;;;;5072463;28;20180;-69
2024/01/21 02:03:27;;;;;;;8.87;5.93;;;2.90;94.70;;;;;;5072612;28;20175;-69
2024/01/21 02:05:53;;;;;;;11.67;5.90;;;2.90;94.90;;;;;;5072584;28;20180;-69
2024/01/21 02:08:19;;;;;;;8.30;6.43;;;2.90;94.90;;;;;;5072433;28;20172;-68
2024/01/21 02:10:45;;;;;;;8.53;6.03;;;3.00;94.70;;;;;;5072597;28;20173;-70
2024/01/21 02:13:11;;;;;;;7.80;5.83;;;2.90;94.70;;;;;;5072597;28;20177;-69
2024/01/21 02:15:36;;;;;;;7.90;6.00;;;2.90;94.70;;;;;;5072213;28;20701;-71
2024/01/21 02:18:02;;;;;;;9.13;6.40;;;3.00;94.70;;;;;;5072667;28;20661;-69
2024/01/21 02:20:28;;;;;;;7.00;5.53;;;2.90;94.90;;;;;;5072723;28;20187;-69
2024/01/21 02:23:06;;;;;;;8.43;5.87;;;3.10;94.30;;;;;;5072564;28;20219;-69
2024/01/21 02:25:32;;;;;;;8.30;5.87;;;3.00;94.30;;;;;;5076102;28;20213;-69
2024/01/21 02:27:57;;;;;;;8.17;5.63;;;3.00;94.30;;;;;;5075995;28;20169;-70
2024/01/21 02:30:23;;;;;;;7.07;5.33;;;3.10;94.10;;;;;;5076004;28;20216;-69
2024/01/21 02:32:48;;;;;;;7.37;5.43;;;3.10;94.40;;;;;;5076279;28;20169;-70
2024/01/21 02:35:14;;;;;;;7.03;5.03;;;3.10;93.80;;;;;;5075921;28;20248;-70
2024/01/21 02:37:41;;;;;;;7.27;5.47;;;3.00;94.00;;;;;;5075747;28;20202;-69
2024/01/21 02:40:07;;;;;;;8.17;5.17;;;3.10;94.00;;;;;;5076083;28;20258;-70
2024/01/21 02:42:33;;;;;;;6.30;4.70;;;3.10;94.00;;;;;;5075503;28;20179;-70
2024/01/21 02:44:58;;;;;;;7.87;4.97;;;3.10;93.80;;;;;;5076252;28;20263;-71
2024/01/21 02:47:24;;;;;;;6.57;4.77;;;3.10;94.10;;;;;;5075710;28;20577;-70
2024/01/21 02:49:50;;;;;;;5.83;4.90;;;3.00;93.90;;;;;;5075630;28;20172;-70
2024/01/21 02:52:15;;;;;;;5.93;5.17;;;3.10;94.00;;;;;;5075816;28;20515;-70
2024/01/21 02:54:41;;;;;;;8.13;5.13;;;3.10;93.80;;;;;;5075829;28;20200;-70
2024/01/21 02:57:06;;;;;;;7.07;4.97;;;3.10;93.80;;;;;;5075171;28;20184;-70
2024/01/21 02:59:32;;;;;;;8.10;5.27;;;3.10;94.00;;;;;;5075361;28;20570;-70
2024/01/21 03:01:57;;;;;;;5.60;4.97;;;3.10;94.40;;;;;;5075770;28;20211;-69
2024/01/21 03:04:23;;;;;;;6.60;5.60;;;3.00;94.20;;;;;;5075577;28;20173;-69
2024/01/21 03:06:49;;;;;;;7.30;5.13;;;3.00;94.50;;;;;;5075455;28;20177;-68
2024/01/21 03:09:14;;;;;;;6.40;5.50;;;3.10;94.60;;;;;;5075372;28;20176;-69
2024/01/21 03:11:40;;;;;;;6.57;5.50;;;3.10;94.10;;;;;;5074928;28;20184;-69
2024/01/21 03:14:07;;;;;;;6.47;4.83;;;3.10;94.20;;;;;;5075361;28;20179;-70
2024/01/21 03:16:33;;;;;;;6.97;5.27;;;3.20;94.10;;;;;;5075119;28;20165;-70
2024/01/21 03:18:58;;;;;;;7.97;5.43;;;3.10;94.10;;;;;;5075191;28;20296;-69
2024/01/21 03:21:24;;;;;;;7.57;5.40;;;3.10;94.50;;;;;;5075352;28;20639;-69
2024/01/21 03:23:50;;;;;;;7.67;5.13;;;3.10;93.80;;;;;;5075001;28;20650;-71
2024/01/21 03:26:15;;;;;;;6.20;5.13;;;3.20;94.50;;;;;;5074585;28;20180;-70
2024/01/21 03:28:41;;;;;;;7.23;5.23;;;3.20;94.30;;;;;;5075230;28;20185;-70
2024/01/21 03:31:06;;;;;;;5.87;4.97;;;3.20;94.00;;;;;;5074618;28;20741;-68
2024/01/21 03:33:32;;;;;;;6.33;5.40;;;3.20;94.30;;;;;;5074053;28;20173;-69
2024/01/21 03:35:58;;;;;;;10.93;5.53;;;3.20;94.30;;;;;;5074470;28;20180;-68
2024/01/21 03:38:23;;;;;;;8.93;5.73;;;3.30;93.90;;;;;;5074752;28;20211;-70
2024/01/21 03:40:49;;;;;;;10.60;5.57;;;3.30;93.50;;;;;;5074573;28;20169;-70
2024/01/21 03:43:14;;;;;;;8.60;5.43;;;3.30;93.30;;;;;;5074908;28;20249;-69
2024/01/21 03:45:40;;;;;;;12.40;6.23;;;3.30;93.50;;;;;;5074670;28;20179;-70
2024/01/21 03:48:06;;;;;;;12.77;6.10;;;3.30;93.50;;;;;;5074543;28;20181;-69
2024/01/21 03:50:32;;;;;;;7.47;5.77;;;3.30;93.70;;;;;;5074751;28;20175;-69
2024/01/21 03:52:57;;;;;;;7.43;5.40;;;3.30;93.50;;;;;;5074644;28;20172;-70
2024/01/21 03:55:23;;;;;;;9.87;5.57;;;3.20;94.00;;;;;;5074090;28;20534;-69
2024/01/21 03:57:48;;;;;;;9.67;5.93;;;3.20;93.80;;;;;;5074284;28;20663;-69
2024/01/21 04:00:15;;;;;;;8.27;6.27;;;3.20;93.90;;;;;;5073321;28;20228;-69
2024/01/21 04:02:40;;;;;;;10.60;6.27;;;3.20;93.80;;;;;;5074384;28;20654;-69
2024/01/21 04:05:07;;;;;;;10.40;6.63;;;3.20;93.80;;;;;;5074289;28;20172;-69
2024/01/21 04:07:32;;;;;;;8.13;6.30;;;3.10;94.10;;;;;;5072950;28;20632;-69
2024/01/21 04:09:58;;;;;;;10.23;6.00;;;3.10;94.40;;;;;;5073882;28;20214;-70
2024/01/21 04:12:24;;;;;;;9.30;6.33;;;3.00;94.80;;;;;;5074109;28;20176;-69
2024/01/21 04:14:49;;;;;;;7.57;5.57;;;3.10;94.80;;;;;;5073839;28;20173;-69
2024/01/21 04:17:15;;;;;;;8.93;6.23;;;3.00;94.90;;;;;;5073880;28;20263;-69
2024/01/21 04:19:40;;;;;;;8.37;5.97;;;3.00;95.30;;;;;;5073890;28;20243;-70
2024/01/21 04:22:06;;;;;;;9.67;6.70;;;2.90;95.00;;;;;;5073797;28;20260;-69
2024/01/21 04:24:31;;;;;;;10.20;6.67;;;2.90;95.60;;;;;;5073682;28;20203;-70
2024/01/21 04:26:57;;;;;;;11.87;7.17;;;2.90;95.90;;;;;;5073734;28;20541;-70
2024/01/21 04:29:23;;;;;;;8.83;6.53;;;2.80;95.70;;;;;;5073535;28;20600;-70
2024/01/21 04:31:48;;;;;;;9.50;6.47;;;2.80;95.40;;;;;;5073712;28;20173;-69
2024/01/21 04:34:14;;;;;;;9.40;6.20;;;2.80;95.90;;;;;;5073291;28;20226;-69
2024/01/21 04:36:39;;;;;;;9.43;6.97;;;2.80;95.70;;;;;;5073573;28;20172;-68
2024/01/21 04:39:08;;;;;;;8.07;5.90;;;2.80;95.90;;;;;;5073252;28;20322;-69
2024/01/21 04:41:33;;;;;;;8.87;6.27;;;2.70;96.00;;;;;;5073486;28;20175;-70
2024/01/21 04:43:59;;;;;;;11.60;7.10;;;2.70;96.20;;;;;;5073564;28;20173;-70
2024/01/21 04:46:24;;;;;;;10.50;6.40;;;2.70;96.30;;;;;;5072998;28;20173;-70
2024/01/21 04:48:50;;;;;;;10.73;6.63;;;2.60;95.80;;;;;;5073231;28;20176;-70
2024/01/21 04:51:16;;;;;;;14.40;6.83;;;2.70;96.40;;;;;;5073614;28;20176;-69
2024/01/21 04:53:42;;;;;;;10.30;6.57;;;2.70;96.10;;;;;;5073193;28;20177;-70
2024/01/21 04:56:16;;;;;;;9.80;6.60;;;2.70;96.20;;;;;;5073206;28;20230;-69
2024/01/21 04:58:41;;;;;;;12.07;6.77;;;2.70;96.50;;;;;;5073128;28;20215;-68
2024/01/21 05:01:07;;;;;;;9.23;7.33;;;2.70;96.30;;;;;;5073509;28;20172;-70
2024/01/21 05:03:33;;;;;;;9.63;6.50;;;2.80;95.70;;;;;;5072855;28;20176;-69
2024/01/21 05:05:58;;;;;;;8.73;5.83;;;2.80;95.00;;;;;;5072907;28;20172;-69
2024/01/21 05:08:24;;;;;;;7.93;6.47;;;2.90;95.40;;;;;;5072916;28;20161;-69
2024/01/21 05:10:49;;;;;;;9.20;6.80;;;3.00;95.20;;;;;;5073100;28;20172;-68
2024/01/21 05:13:15;;;;;;;10.50;6.90;;;2.90;95.00;;;;;;5072739;28;20169;-70
2024/01/21 05:15:41;;;;;;;8.20;6.03;;;2.90;95.40;;;;;;5073133;28;20175;-69
2024/01/21 05:18:06;;;;;;;7.70;6.20;;;2.90;95.40;;;;;;5073081;28;20280;-69
2024/01/21 05:20:32;;;;;;;7.13;5.77;;;2.80;95.40;;;;;;5072788;28;20188;-70
2024/01/21 05:22:59;;;;;;;10.17;6.37;;;2.80;95.10;;;;;;5072772;28;20175;-69
2024/01/21 05:25:25;;;;;;;7.60;6.00;;;2.90;95.60;;;;;;5072847;28;20191;-69
2024/01/21 05:27:50;;;;;;;9.30;6.70;;;2.90;95.20;;;;;;5072945;28;20177;-70
2024/01/21 05:30:16;;;;;;;10.13;6.37;;;3.00;95.20;;;;;;5072760;28;20258;-69
2024/01/21 05:32:46;;;;;;;8.43;6.70;;;3.00;94.90;;;;;;5073138;28;20582;-69
2024/01/21 05:35:13;;;;;;;8.00;5.63;;;3.00;94.80;;;;;;5072890;28;20180;-69
2024/01/21 05:37:38;;;;;;;7.17;5.63;;;3.10;94.00;;;;;;5072819;28;20196;-69
2024/01/21 05:40:05;;;;;;;7.07;6.00;;;3.00;93.90;;;;;;5072656;28;20622;-69
2024/01/21 05:42:30;;;;;;;9.83;6.00;;;3.00;93.80;;;;;;5073129;28;20169;-69
2024/01/21 05:44:56;;;;;;;8.03;5.37;;;3.00;93.90;;;;;;5072886;28;20177;-69
2024/01/21 05:47:22;;;;;;;7.80;5.63;;;3.10;93.70;;;;;;5073031;28;20191;-69
2024/01/21 05:49:47;;;;;;;8.90;5.17;;;3.10;92.90;;;;;;5072783;28;20217;-70
2024/01/21 05:52:13;;;;;;;9.17;5.63;;;3.10;93.10;;;;;;5072532;28;20180;-69
2024/01/21 05:54:39;;;;;;;6.73;4.83;;;3.10;93.10;;;;;;5072795;28;20563;-69
2024/01/21 05:57:05;;;;;;;9.50;5.50;;;3.00;93.30;;;;;;5072832;28;20227;-68
2024/01/21 05:59:32;;;;;;;11.30;6.13;;;3.00;93.60;;;;;;5076563;28;20342;-68
2024/01/21 06:01:57;;;;;;;10.77;5.50;;;3.00;93.40;;;;;;5076471;28;20876;-70
2024/01/21 06:04:23;;;;;;;11.93;5.83;;;2.90;93.50;;;;;;5076588;28;20210;-69
2024/01/21 06:06:49;;;;;;;5.83;4.77;;;3.00;94.10;;;;;;5076161;28;20608;-70
2024/01/21 06:09:15;;;;;;;10.10;5.40;;;3.00;93.40;;;;;;5076405;28;20187;-70
2024/01/21 06:11:41;;;;;;;10.07;5.60;;;3.00;93.60;;;;;;5076228;28;20171;-68
2024/01/21 06:14:06;;;;;;;8.17;5.33;;;3.10;93.70;;;;;;5076137;28;20230;-68
2024/01/21 06:16:32;;;;;;;7.57;5.70;;;3.10;93.80;;;;;;5076078;28;20172;-70
2024/01/21 06:18:57;;;;;;;6.10;5.10;;;3.10;94.00;;;;;;5076016;28;20208;-68
2024/01/21 06:21:23;;;;;;;8.67;5.83;;;3.20;93.90;;;;;;5075960;28;20169;-69
2024/01/21 06:23:49;;;;;;;6.77;5.37;;;3.20;94.00;;;;;;5076089;28;20181;-69
2024/01/21 06:26:16;;;;;;;8.30;5.63;;;3.20;93.60;;;;;;5076047;28;20572;-70
2024/01/21 06:28:41;;;;;;;8.00;5.33;;;3.10;93.90;;;;;;5075939;28;20180;-70
2024/01/21 06:31:07;;;;;;;10.20;6.20;;;3.20;94.20;;;;;;5075769;28;20232;-69
2024/01/21 06:33:32;;;;;;;6.23;5.27;;;3.20;94.00;;;;;;5075836;28;20275;-70
2024/01/21 06:35:58;;;;;;;6.00;5.40;;;3.10;94.00;;;;;;5075552;28;20186;-69
2024/01/21 06:38:23;;;;;;;7.40;6.10;;;3.20;94.00;;;;;;5075620;28;20300;-69
2024/01/21 06:40:49;;;;;;;9.57;6.10;;;3.20;94.40;;;;;;5075842;28;20176;-69
2024/01/21 06:43:15;;;;;;;5.83;5.17;;;3.30;94.20;;;;;;5075713;28;20192;-68
2024/01/21 06:45:40;;;;;;;9.63;5.43;;;3.30;94.10;;;;;;5075497;28;20532;-70
2024/01/21 06:48:06;;;;;;;10.40;5.70;;;3.30;94.50;;;;;;5074650;28;20616;-69
2024/01/21 06:50:33;;;;;;;6.43;5.73;;;3.30;94.60;;;;;;5075327;28;20509;-68
2024/01/21 06:52:58;;;;;;;6.27;5.60;;;3.30;94.90;;;;;;5075780;28;20276;-68
2024/01/21 06:55:24;;;;;;;8.93;6.20;;;3.40;94.70;;;;;;5075308;28;20632;-69
2024/01/21 06:57:50;;;;;;;11.33;5.70;;;3.30;95.20;;;;;;5075070;28;20189;-70
2024/01/21 07:00:16;;;;;;;7.80;5.90;;;3.30;95.40;;;;;;5075313;28;20219;-69
2024/01/21 07:02:42;;;;;;;8.83;5.60;;;3.30;96.00;;;;;;5075466;28;20183;-70
2024/01/21 07:05:08;;;;;;;9.47;6.03;;;3.20;96.10;;;;;;5074926;28;20176;-70
2024/01/21 07:07:34;;;;;;;7.37;5.10;;;3.30;96.50;;;;;;5075224;28;20164;-69
2024/01/21 07:09:59;;;;;;;13.13;6.43;;;3.30;96.40;;;;;;5075282;28;20282;-70
2024/01/21 07:12:25;;;;;;;8.90;5.77;;;3.30;96.50;;;;;;5074869;28;20475;-70
2024/01/21 07:14:50;;;;;;;8.67;6.10;;;3.30;96.90;;;;;;5075341;28;20225;-69
2024/01/21 07:17:16;;;;;;;9.53;6.23;;;3.30;97.00;;;;;;5075060;28;20544;-69
2024/01/21 07:19:42;;;;;;;9.40;6.40;;;3.20;98.20;;;;;;5074722;28;20215;-69
2024/01/21 07:22:08;;;;;;;9.40;5.83;;;3.30;97.80;;;;;;5074596;28;20582;-68
2024/01/21 07:24:34;;;;;;;5.23;4.30;;;3.20;98.60;;;;;;5074916;28;20207;-71
2024/01/21 07:27:00;;;;;;;8.97;6.37;;;3.10;98.90;;;;;;5074693;28;20200;-69
2024/01/21 07:29:26;;;;;;;7.20;6.33;;;3.10;99.50;;;;;;5074962;28;20212;-69
2024/01/21 07:31:51;;;;;;;13.23;6.27;;;3.00;99.60;;;;;;5075121;28;20191;-70
2024/01/21 07:34:17;;;;;;;9.70;6.23;;;3.10;99.90;;;;;;5074531;28;20165;-69
2024/01/21 07:36:43;;;;;;;10.23;6.57;;;3.10;99.90;;;;;;5074132;28;20179;-70
2024/01/21 07:39:08;;;;;;;9.27;6.17;;;3.00;99.90;;;;;;5074748;28;20200;-69
2024/01/21 07:41:34;;;;;;;11.17;6.37;;;2.90;99.90;;;;;;5074654;28;20639;-70
2024/01/21 07:43:59;;;;;;;12.17;6.30;;;2.90;99.90;;;;;;5074981;28;20620;-69
2024/01/21 07:46:25;;;;;;;9.10;5.83;;;3.00;99.90;;;;;;5073223;28;20247;-70
2024/01/21 07:48:51;;;;;;;11.43;6.77;;;3.00;99.90;;;;;;5073946;28;20173;-69
2024/01/21 07:51:19;;;;;;;10.20;6.93;;;3.00;99.90;;;;;;5074300;28;20772;-68
2024/01/21 07:53:45;;;;;;;8.60;6.50;;;3.10;99.90;;;;;;5074572;28;20168;-69
2024/01/21 07:56:10;;;;;;;15.20;5.90;;;3.10;99.90;;;;;;5073801;28;20176;-69
2024/01/21 07:58:36;;;;;;;14.47;7.17;;;3.10;99.90;;;;;;5074138;28;20227;-69
2024/01/21 08:01:02;;;;;;;12.77;7.70;;;3.00;99.90;;;;;;5074045;28;20544;-69
2024/01/21 08:03:28;;;;;;;13.73;7.40;;;2.90;99.90;;;;;;5073877;28;20230;-69
2024/01/21 08:05:55;;;;;;;13.17;7.47;;;2.90;99.90;;;;;;5073804;28;20169;-70
2024/01/21 08:08:20;;;;;;;9.33;6.70;;;2.90;99.90;;;;;;5074269;28;20608;-69
2024/01/21 08:10:46;;;;;;;10.33;6.80;;;3.00;99.90;;;;;;5073755;28;20179;-68
2024/01/21 08:13:11;;;;;;;10.40;7.07;;;3.10;99.90;;;;;;5073879;28;20661;-70
2024/01/21 08:15:37;;;;;;;8.10;6.87;;;3.30;99.90;;;;;;5073905;28;20222;-69
2024/01/21 08:18:05;;;;;;;12.33;7.43;;;3.40;99.90;;;;;;5073821;28;20192;-68
2024/01/21 08:20:30;;;;;;;8.93;6.70;;;3.40;99.90;;;;;;5072879;28;20211;-68
2024/01/21 08:22:56;;;;;;;12.30;6.47;;;3.40;99.90;;;;;;5073780;28;20180;-70
2024/01/21 08:25:21;;;;;;;9.07;7.37;;;3.40;99.90;;;;;;5071983;28;20233;-69
2024/01/21 08:27:47;;;;;;;8.03;6.70;;;3.50;99.90;;;;;;5073812;28;20204;-69
2024/01/21 08:30:13;;;;;;;8.70;6.90;;;3.50;99.90;;;;;;5073627;28;20361;-70
2024/01/21 08:32:39;;;;;;;10.63;6.53;;;3.50;99.90;;;;;;5073417;28;20293;-69
2024/01/21 08:35:05;;;;;;;10.43;7.43;;;3.50;99.90;;;;;;5073595;28;20180;-69
2024/01/21 08:37:30;;;;;;;9.70;7.00;;;3.40;99.90;;;;;;5073027;28;20173;-70
2024/01/21 08:39:56;;;;;;;9.10;6.83;;;3.50;99.90;;;;;;5073076;28;20219;-70
2024/01/21 08:42:23;;;;;;;8.60;6.67;;;3.50;99.90;;;;;;5073472;28;20627;-70
2024/01/21 08:44:50;;;;;;;10.57;6.80;;;3.50;99.90;;;;;;5073252;28;20180;-69
2024/01/21 08:47:16;;;;;;;8.47;6.63;;;3.50;99.90;;;;;;5073346;28;20181;-69
2024/01/21 08:49:42;;;;;;;7.37;5.87;;;3.60;99.90;;;;;;5072999;28;20253;-70
2024/01/21 08:52:07;;;;;;;7.63;6.43;;;3.70;99.90;;;;;;5072979;28;20183;-68
2024/01/21 08:54:33;;;;;;;7.60;6.40;;;3.70;99.90;;;;;;5073241;28;20682;-69
2024/01/21 08:56:58;;;;;;;9.83;6.40;;;3.80;99.90;;;;;;5072947;28;20196;-70
2024/01/21 08:59:24;;;;;;;10.67;6.90;;;3.90;99.90;;;;;;5072966;28;20652;-71
2024/01/21 09:01:49;;;;;;;11.37;6.70;;;3.90;99.90;;;;;;5073127;28;20168;-70
2024/01/21 09:04:15;;;;;;;8.33;6.13;;;3.90;99.90;;;;;;5072908;28;20172;-68
2024/01/21 09:06:41;;;;;;;8.23;6.67;;;4.00;99.90;;;;;;5072824;28;20173;-69
2024/01/21 09:09:13;;;;;;;9.87;7.33;;;4.10;99.90;;;;;;5072966;28;20302;-69
2024/01/21 09:11:39;;;;;;;9.17;6.77;;;4.10;99.90;;;;;;5073139;28;20221;-69
2024/01/21 09:14:06;;;;;;;11.17;6.57;;;4.20;99.90;;;;;;5072269;28;20168;-68
2024/01/21 09:16:35;;;;;;;9.57;6.97;;;4.20;99.90;;;;;;5072739;28;20179;-70
2024/01/21 09:19:01;;;;;;;9.90;7.97;;;4.30;99.90;;;;;;5072847;28;20216;-69
2024/01/21 09:21:27;;;;;;;11.17;6.83;;;4.40;99.90;;;;;;5072822;28;20168;-69
2024/01/21 09:23:55;;;;;;;8.77;6.50;;;4.40;99.90;;;;;;5072821;28;20229;-69
2024/01/21 09:26:20;;;;;;;9.40;7.20;;;4.40;99.90;;;;;;5073112;28;20172;-70
2024/01/21 09:28:46;;;;;;;15.47;10.53;;;4.50;99.90;;;;;;5072203;28;20260;-69
2024/01/21 09:31:12;;;;;;;8.67;7.00;;;4.50;99.90;;;;;;5073272;28;20223;-69
2024/01/21 09:33:37;;;;;;;9.37;6.77;;;4.60;99.90;;;;;;5077270;28;20259;-69
2024/01/21 09:36:04;;;;;;;7.53;6.40;;;4.60;99.90;;;;;;5076786;28;20191;-69
2024/01/21 09:38:29;;;;;;;6.93;6.20;;;4.60;99.90;;;;;;5076702;28;20172;-69
2024/01/21 09:41:05;;;;;;;13.70;7.37;;;4.80;99.90;;;;;;5076426;28;20179;-69
2024/01/21 09:43:33;;;;;;;10.10;6.90;;;4.80;99.90;;;;;;5076696;28;20217;-68
2024/01/21 09:45:59;;;;;;;10.27;6.67;;;4.80;99.90;;;;;;5076837;28;20249;-68
2024/01/21 09:48:25;;;;;;;7.67;6.73;;;4.90;99.90;;;;;;5076055;28;20172;-69
2024/01/21 09:50:53;;;;;;;8.33;6.77;;;4.90;99.90;;;;;;5076697;28;20161;-69
2024/01/21 09:53:19;;;;;;;8.30;6.50;;;4.90;99.90;;;;;;5076671;28;20180;-70
2024/01/21 09:55:47;;;;;;;8.13;6.20;;;5.00;99.90;;;;;;5076428;28;20173;-69
2024/01/21 09:58:15;;;;;;;9.17;6.60;;;5.00;99.90;;;;;;5076061;28;20207;-68
2024/01/21 10:00:43;;;;;;;11.73;8.83;;;5.10;99.90;;;;;;5076209;28;20188;-69
2024/01/21 10:03:09;;;;;;;157.13;71.00;;;5.20;99.90;;;;;;5076564;28;20180;-68
2024/01/21 10:05:34;;;;;;;9.37;6.97;;;5.30;99.90;;;;;;5076316;28;20172;-69
2024/01/21 10:08:00;;;;;;;9.77;6.40;;;5.30;99.90;;;;;;5076151;28;20180;-69
2024/01/21 10:10:26;;;;;;;9.53;8.00;;;5.40;99.90;;;;;;5076053;28;20169;-69
2024/01/21 10:12:52;;;;;;;8.73;6.47;;;5.40;99.90;;;;;;5075855;28;20208;-69
2024/01/21 10:15:18;;;;;;;9.13;6.03;;;5.50;99.90;;;;;;5076219;28;20178;-68
2024/01/21 10:17:43;;;;;;;9.20;6.10;;;5.60;99.90;;;;;;5076095;28;20199;-69
2024/01/21 10:20:12;;;;;;;7.70;6.30;;;5.50;99.90;;;;;;5075817;28;20621;-68
2024/01/21 10:22:38;;;;;;;9.37;6.27;;;5.60;99.90;;;;;;5075630;28;20262;-68
2024/01/21 10:25:05;;;;;;;9.03;6.00;;;5.70;99.90;;;;;;5075757;28;20173;-69
2024/01/21 10:27:31;;;;;;;9.10;5.70;;;6.00;99.90;;;;;;5075529;28;20654;-69
2024/01/21 10:29:57;;;;;;;6.43;5.70;;;6.00;99.90;;;;;;5075802;28;20290;-70
2024/01/21 10:32:23;;;;;;;8.87;5.80;;;5.90;99.90;;;;;;5075910;28;20551;-68
2024/01/21 10:34:50;;;;;;;9.10;6.13;;;6.20;99.90;;;;;;5075683;28;20180;-69
2024/01/21 10:37:17;;;;;;;12.83;8.33;;;6.20;99.90;;;;;;5075842;28;20173;-69
2024/01/21 10:39:47;;;;;;;9.37;6.10;;;6.40;99.90;;;;;;5075944;28;20200;-68
2024/01/21 10:42:17;;;;;;;8.97;6.70;;;6.40;99.90;;;;;;5075393;28;20165;-69
2024/01/21 10:44:44;;;;;;;8.83;7.97;;;6.40;99.90;;;;;;5075038;28;20177;-68
2024/01/21 10:47:09;;;;;;;7.93;6.10;;;6.40;99.90;;;;;;5075710;28;20251;-69
2024/01/21 10:49:36;;;;;;;8.10;6.03;;;6.50;99.90;;;;;;5075120;28;20175;-68
2024/01/21 10:52:01;;;;;;;7.83;6.67;;;6.50;99.90;;;;;;5075539;28;20169;-68
2024/01/21 10:54:28;;;;;;;6.70;6.10;;;6.40;99.90;;;;;;5075510;28;20169;-69
2024/01/21 10:56:54;;;;;;;7.03;5.80;;;6.40;99.90;;;;;;5074407;28;20309;-68
2024/01/21 10:59:21;;;;;;;11.40;6.47;;;6.40;99.90;;;;;;5075268;28;20236;-69
2024/01/21 11:01:48;;;;;;;7.87;5.63;;;6.40;99.90;;;;;;5075409;28;20156;-68
2024/01/21 11:04:14;;;;;;;9.60;5.87;;;6.40;99.90;;;;;;5075417;28;20165;-69
2024/01/21 11:06:48;;;;;;;6.67;5.97;;;6.40;99.90;;;;;;5074971;28;20689;-69
2024/01/21 11:09:21;;;;;;;7.27;6.40;;;6.60;99.90;;;;;;5074963;28;20696;-68
2024/01/21 11:11:48;;;;;;;9.73;6.27;;;6.80;99.90;;;;;;5075017;28;20285;-67
2024/01/21 11:14:33;;;;;;;7.77;6.37;;;6.80;99.90;;;;;;5074791;28;20249;-68
2024/01/21 11:17:04;;;;;;;8.03;6.43;;;6.80;99.90;;;;;;5074971;28;20169;-69
2024/01/21 11:20:00;;;;;;;6.00;5.33;;;6.90;99.90;;;;;;5074725;28;20693;-69
2024/01/21 11:22:26;;;;;;;7.40;6.70;;;6.90;99.90;;;;;;4993205;28;20222;-69
2024/01/21 11:24:55;;;;;;;10.77;7.43;;;6.90;99.90;;;;;;4993372;28;20171;-69
2024/01/21 11:27:26;;;;;;;8.27;6.77;;;6.80;99.90;;;;;;4992945;28;20234;-69
2024/01/21 11:29:56;;;;;;;7.73;6.60;;;6.70;99.90;;;;;;4993157;28;20226;-68
2024/01/21 11:32:26;;;;;;;11.17;6.90;;;6.70;99.90;;;;;;4993638;28;20237;-69
2024/01/21 11:34:53;;;;;;;8.43;6.67;;;6.70;99.90;;;;;;4993169;28;20198;-70
2024/01/21 11:37:19;;;;;;;10.90;6.83;;;6.50;99.90;;;;;;4992927;28;20246;-69
2024/01/21 11:39:45;;;;;;;9.03;7.10;;;6.30;99.90;;;;;;4992667;28;20227;-69
2024/01/21 11:42:11;;;;;;;10.37;7.73;;;6.50;99.90;;;;;;4993255;28;20270;-68
2024/01/21 11:44:37;;;;;;;9.60;7.97;;;6.50;99.90;;;;;;4992952;28;20175;-68
2024/01/21 11:47:04;;;;;;;8.93;7.23;;;6.60;99.90;;;;;;4993072;28;20190;-68
2024/01/21 11:49:32;;;;;;;9.60;8.00;;;6.60;99.90;;;;;;4992582;28;20211;-69
2024/01/21 11:52:05;;;;;;;17.23;14.83;;;6.50;99.90;;;;;;4992805;28;20214;-68
2024/01/21 11:54:31;;;;;;;10.77;8.60;;;6.50;99.90;;;;;;4991778;28;20190;-67
2024/01/21 11:56:57;;;;;;;8.53;7.73;;;6.70;99.90;;;;;;4992630;28;20210;-68
2024/01/21 11:59:24;;;;;;;11.80;7.67;;;6.60;99.90;;;;;;5037905;28;20220;-69
2024/01/21 12:01:50;;;;;;;9.27;7.63;;;6.40;99.90;;;;;;5054102;28;20165;-69
2024/01/21 12:04:15;;;;;;;44.07;29.00;;;6.40;99.90;;;;;;5053822;28;20597;-69
2024/01/21 12:06:45;;;;;;;14.47;8.27;;;6.50;99.90;;;;;;5053472;28;20280;-68
2024/01/21 12:09:11;;;;;;;10.23;7.17;;;6.40;99.90;;;;;;5053422;28;20181;-69
2024/01/21 12:11:38;;;;;;;8.43;7.23;;;6.50;99.90;;;;;;5053920;28;20199;-68
2024/01/21 12:14:06;;;;;;;8.20;7.20;;;6.50;99.90;;;;;;5054217;28;20169;-69
2024/01/21 12:16:35;;;;;;;8.50;6.97;;;6.30;99.90;;;;;;5053024;28;20177;-68
2024/01/21 12:19:02;;;;;;;10.27;7.60;;;6.30;99.90;;;;;;5053748;28;20643;-68
2024/01/21 12:21:28;;;;;;;8.97;7.30;;;6.30;99.90;;;;;;5053508;28;20207;-70
2024/01/21 12:23:55;;;;;;;10.97;7.30;;;6.40;99.90;;;;;;5053345;28;20195;-70
2024/01/21 12:26:22;;;;;;;7.47;6.77;;;6.30;99.90;;;;;;5053587;28;20635;-70
2024/01/21 12:28:59;;;;;;;8.03;6.90;;;6.20;99.90;;;;;;5053251;28;20201;-69
2024/01/21 12:31:36;;;;;;;9.37;7.00;;;6.20;99.90;;;;;;5072352;28;20288;-69
2024/01/21 12:34:03;;;;;;;7.23;5.40;;;6.10;99.90;;;;;;5073403;28;20632;-69
2024/01/21 12:36:40;;;;;;;8.97;6.70;;;6.10;99.90;;;;;;5073529;28;20200;-69
2024/01/21 12:39:06;;;;;;;9.17;7.13;;;6.20;99.90;;;;;;5072558;28;20283;-69
2024/01/21 12:41:32;;;;;;;9.43;7.40;;;6.20;99.90;;;;;;5073290;28;20272;-68
2024/01/21 12:43:58;;;;;;;9.37;7.27;;;6.20;99.90;;;;;;5073734;28;20263;-70
2024/01/21 12:46:24;;;;;;;10.17;7.07;;;6.30;99.90;;;;;;5072893;28;20578;-69
2024/01/21 12:48:50;;;;;;;12.40;9.00;;;6.40;99.90;;;;;;5073077;28;20185;-70